Buoy 41609

sailwx.info

Track history (hours):
 
Tides and Currents Weather Stations Pressure Air Temp Water Temp Dewpoint Dewpoint Depression Visibility Wind Speed Wind Dir Waves Ship Positions

Drifting buoy 41609

Last reported at 2014-Nov-24 14:00 UTC. Time now 2014-Nov-24 16:28 UTC.
Position N 38°10' W 067°32'.

Water temperature 19.3 ° C

Date/timePositionNaut miles runAvg speedWind from/ knotsBaromVisibWave heightAir tempDewpointWater temp
2014-Nov-24 14:00N 38°10' W 067°32'0 0.0 19.3
2014-Nov-24 13:00N 38°10' W 067°32'0 0.2 19.3
2014-Nov-24 11:00N 38°10' W 067°32'3 3.3 19.1
2014-Nov-24 10:00N 38°07' W 067°34'1 1.3 19.3
2014-Nov-24 09:00N 38°06' W 067°34'4 4.3 19.5
2014-Nov-24 08:00N 38°02' W 067°37'5 4.6 19.5
2014-Nov-24 07:00N 37°58' W 067°40'0 0.0 19.6
2014-Nov-24 06:00N 37°58' W 067°40'11 2.6 19.7
2014-Nov-24 02:00N 37°49' W 067°45'1212.0 19.8
2014-Nov-24 01:00N 37°37' W 067°50'0 0.0 20.1
2014-Nov-24 00:00N 37°37' W 067°50'0 0.0 20.2
2014-Nov-23 23:00N 37°37' W 067°50'5 5.0 20.3
2014-Nov-23 22:00N 37°32' W 067°52'2 1.5 19.9
2014-Nov-23 21:00N 37°31' W 067°53'5 4.6 19.7
2014-Nov-23 20:00N 37°27' W 067°55'0 0.5 19.0
2014-Nov-23 19:00N 37°27' W 067°55'7 6.9 19.2
2014-Nov-23 18:00N 37°21' W 067°59'0 0.0 19.3
2014-Nov-23 17:00N 37°21' W 067°59'10 5.1 20.0
2014-Nov-23 15:00N 37°13' W 068°06'1313.2 19.8
2014-Nov-23 14:00N 37°03' W 068°17'0 0.0 20.5
2014-Nov-23 13:00N 37°03' W 068°17'0 0.0 19.2
2014-Nov-23 12:00N 37°03' W 068°17'0 0.0 20.0
2014-Nov-23 11:00N 37°03' W 068°17'5 4.5 19.4
2014-Nov-23 10:00N 37°01' W 068°22'5 4.9 20.2
2014-Nov-23 09:00N 36°59' W 068°28'0 0.0 19.2
2014-Nov-23 08:00N 36°59' W 068°28'5 4.7 19.3
2014-Nov-23 07:00N 36°58' W 068°34'1212.1 19.3
2014-Nov-23 06:00N 36°56' W 068°49'0 0.0 19.3
2014-Nov-23 05:00N 36°56' W 068°49'1 0.1 19.3
2014-Nov-23 01:00N 36°56' W 068°49'1 1.0 19.3
2014-Nov-23 00:00N 36°56' W 068°50'1 0.9 19.3
2014-Nov-22 23:00N 36°56' W 068°49'6 6.4 19.4
2014-Nov-22 22:00N 36°56' W 068°57'3 3.4 19.4
2014-Nov-22 21:00N 36°56' W 069°01'0 0.0 19.5
2014-Nov-22 20:00N 36°56' W 069°01'4 3.8 19.6
2014-Nov-22 19:00N 36°56' W 069°06'0 0.1 19.7
2014-Nov-22 17:00N 36°56' W 069°06'1010.1 19.6
2014-Nov-22 16:00N 36°57' W 069°19'0 0.0 19.7
2014-Nov-22 15:00N 36°57' W 069°19'1110.6 19.3
2014-Nov-22 14:00N 37°02' W 069°30'0 0.0 19.4
2014-Nov-22 13:00N 37°02' W 069°30'2 1.0 19.4
2014-Nov-22 11:00N 37°03' W 069°32'3 3.4 19.3
2014-Nov-22 10:00N 37°05' W 069°35'2 1.9 19.1
2014-Nov-22 09:00N 37°07' W 069°37'5 4.5 19.1
2014-Nov-22 08:00N 37°10' W 069°41'5 4.6 18.9
2014-Nov-22 07:00N 37°13' W 069°45'0 0.0 18.8
2014-Nov-22 06:00N 37°13' W 069°45'0 0.0 18.7
2014-Nov-22 05:00N 37°13' W 069°45'10 3.2 19.1
2014-Nov-22 02:00N 37°21' W 069°52'9 4.7 18.7
2014-Nov-22 00:00N 37°29' W 069°59'0 0.0 18.5
2014-Nov-21 23:00N 37°29' W 069°59'0 0.0 18.4
2014-Nov-21 22:00N 37°29' W 069°59'5 4.9 18.5
2014-Nov-21 21:00N 37°32' W 070°03'0 0.0 18.5
2014-Nov-21 19:00N 37°32' W 070°03'4 4.3 18.5
2014-Nov-21 18:00N 37°36' W 070°06'4 4.1 18.6
2014-Nov-21 17:00N 37°40' W 070°08'13 4.2 18.6
2014-Nov-21 14:00N 37°48' W 070°20'0 0.0 18.6
2014-Nov-21 11:00N 37°48' W 070°20'1111.2 18.3
2014-Nov-21 10:00N 37°56' W 070°31'8 8.2 18.3
2014-Nov-21 09:00N 37°50' W 070°23'8 8.2 18.5
2014-Nov-21 08:00N 37°56' W 070°31'0 0.0 18.6
2014-Nov-21 07:00N 37°56' W 070°31'0 0.0 18.6
2014-Nov-21 05:00N 37°56' W 070°31'15 4.9 18.9
2014-Nov-21 02:00N 38°06' W 070°44'2 0.8 18.3
2014-Nov-21 00:00N 38°07' W 070°46'3 3.3 18.2
2014-Nov-20 23:00N 38°08' W 070°49'2 1.6 18.3
2014-Nov-20 22:00N 38°09' W 070°51'2 1.1 19.0
2014-Nov-20 20:00N 38°10' W 070°53'2 2.0 17.9
2014-Nov-20 19:00N 38°11' W 070°56'0 0.0 17.9
2014-Nov-20 18:00N 38°11' W 070°56'0 0.1 17.8
2014-Nov-20 17:00N 38°11' W 070°56'9 8.9 17.8
2014-Nov-20 16:00N 38°15' W 071°06'0 0.0 17.8
2014-Nov-20 14:00N 38°15' W 071°06'3 0.8 17.8
2014-Nov-20 10:00N 38°16' W 071°10'0 0.0 18.0
2014-Nov-20 09:00N 38°16' W 071°10'0 0.0 18.6
2014-Nov-20 08:00N 38°16' W 071°10'7 0.9 17.7
2014-Nov-20 01:00N 38°18' W 071°18'0 0.0 17.8
2014-Nov-20 00:00N 38°18' W 071°18'2 2.0 17.8
2014-Nov-19 23:00N 38°19' W 071°20'1 0.9 17.8
2014-Nov-19 22:00N 38°19' W 071°21'2 2.0 17.8
2014-Nov-19 21:00N 38°19' W 071°24'1 1.4 17.8
2014-Nov-19 20:00N 38°19' W 071°26'0 0.0 18.1
2014-Nov-19 19:00N 38°19' W 071°26'0 0.0 18.1
2014-Nov-19 18:00N 38°19' W 071°26'5 0.7 18.1
2014-Nov-19 11:00N 38°17' W 071°31'1 0.9 18.0
2014-Nov-19 10:00N 38°18' W 071°32'2 1.5 17.9
2014-Nov-19 09:00N 38°19' W 071°33'0 0.0 18.0
2014-Nov-19 06:00N 38°19' W 071°33'3 0.8 17.9
2014-Nov-19 02:00N 38°21' W 071°37'2 2.4 17.9
2014-Nov-19 01:00N 38°22' W 071°40'1 0.2 18.0
2014-Nov-18 20:00N 38°21' W 071°41'0 0.5 18.2
2014-Nov-18 19:00N 38°21' W 071°40'2 0.4 18.3
2014-Nov-18 14:00N 38°20' W 071°38'2 0.6 18.5
2014-Nov-18 11:00N 38°22' W 071°38'2 1.5 18.5
2014-Nov-18 10:00N 38°23' W 071°39'0 0.5 18.6
2014-Nov-18 09:00N 38°23' W 071°40'0 0.5 18.6
2014-Nov-18 08:00N 38°23' W 071°39'3 3.0 18.6
2014-Nov-18 07:00N 38°21' W 071°42'0 0.0 18.6
2014-Nov-18 06:00N 38°21' W 071°42'0 0.0 18.6
2014-Nov-18 03:00N 38°21' W 071°42'1 0.4 18.6
2014-Nov-18 01:00N 38°20' W 071°43'1 1.3 18.7
2014-Nov-18 00:00N 38°22' W 071°43'1 0.4 18.6
2014-Nov-17 22:00N 38°22' W 071°44'0 0.0 18.7
2014-Nov-17 20:00N 38°22' W 071°44'1 0.4 18.7
2014-Nov-17 18:00N 38°23' W 071°44'2 2.0 18.7
2014-Nov-17 17:00N 38°22' W 071°47'2 0.8 18.6
2014-Nov-17 14:00N 38°22' W 071°50'1 0.3 18.5
2014-Nov-17 10:00N 38°21' W 071°50'0 0.0 18.6
2014-Nov-17 09:00N 38°21' W 071°50'2 2.4 18.7
2014-Nov-17 08:00N 38°20' W 071°47'1 1.1 18.8
2014-Nov-17 07:00N 38°21' W 071°48'0 0.0 18.7
2014-Nov-17 06:00N 38°21' W 071°48'3 0.7 18.7
2014-Nov-17 02:00N 38°22' W 071°51'0 0.0 17.3
2014-Nov-17 01:00N 38°22' W 071°51'0 0.0 17.3
2014-Nov-17 00:00N 38°22' W 071°51'3 1.4 17.3
2014-Nov-16 22:00N 38°22' W 071°55'0 0.2 17.3
2014-Nov-16 21:00N 38°22' W 071°54'1 0.4 17.4
2014-Nov-16 18:00N 38°23' W 071°53'0 0.0 17.5
2014-Nov-16 17:00N 38°23' W 071°53'1 0.9 18.0
2014-Nov-16 16:00N 38°23' W 071°52'2 1.8 18.0
2014-Nov-16 15:00N 38°25' W 071°52'0 0.0 17.6
2014-Nov-16 13:00N 38°25' W 071°52'0 0.0 17.2
2014-Nov-16 12:00N 38°25' W 071°52'0 0.0 17.2
2014-Nov-16 11:00N 38°25' W 071°52'1 1.4 17.2
2014-Nov-16 10:00N 38°25' W 071°53'1 0.8 17.2
2014-Nov-16 09:00N 38°25' W 071°54'0 0.0 17.2
2014-Nov-16 08:00N 38°25' W 071°54'1 0.8 17.2
2014-Nov-16 07:00N 38°26' W 071°55'0 0.0 17.2
2014-Nov-16 02:00N 38°26' W 071°55'0 0.5 17.2
2014-Nov-16 01:00N 38°26' W 071°54'1 0.6 17.3
2014-Nov-16 00:00N 38°26' W 071°54'0 0.2 17.3
2014-Nov-15 23:00N 38°27' W 071°54'4 3.6 17.3
2014-Nov-15 22:00N 38°29' W 071°51'0 0.0 17.2
2014-Nov-15 21:00N 38°29' W 071°51'0 0.0 17.3
2014-Nov-15 20:00N 38°29' W 071°51'1 0.8 17.3
2014-Nov-15 19:00N 38°30' W 071°50'0 0.2 17.3
2014-Nov-15 18:00N 38°30' W 071°51'0 0.2 17.3
2014-Nov-15 17:00N 38°30' W 071°50'3 1.3 17.3
2014-Nov-15 15:00N 38°32' W 071°49'0 0.0 17.4
2014-Nov-15 14:00N 38°32' W 071°49'1 0.2 17.4
2014-Nov-15 11:00N 38°32' W 071°49'0 0.0 17.5
2014-Nov-15 10:00N 38°32' W 071°49'1 1.1 17.5
2014-Nov-15 09:00N 38°32' W 071°48'0 0.1 17.6
2014-Nov-15 08:00N 38°32' W 071°48'0 0.1 17.7
2014-Nov-15 07:00N 38°32' W 071°48'1 1.1 17.8
2014-Nov-15 06:00N 38°32' W 071°47'3 3.0 17.9
2014-Nov-15 05:00N 38°34' W 071°44'1 0.4 18.0
2014-Nov-15 02:00N 38°34' W 071°43'2 1.9 17.8
2014-Nov-15 01:00N 38°36' W 071°42'0 0.0 17.8
2014-Nov-14 23:00N 38°36' W 071°42'2 1.9 17.8
2014-Nov-14 22:00N 38°38' W 071°43'0 0.0 17.8
2014-Nov-14 21:00N 38°38' W 071°43'0 0.5 17.9
2014-Nov-14 20:00N 38°38' W 071°43'1 0.8 17.9
2014-Nov-14 19:00N 38°38' W 071°43'1 0.8 17.8
2014-Nov-14 18:00N 38°38' W 071°43'0 0.0 17.8
2014-Nov-14 17:00N 38°38' W 071°43'6 1.9 17.8
2014-Nov-14 14:00N 38°39' W 071°36'   17.8
Track history (hours):
 
Tides and Currents Weather Stations Pressure Air Temp Water Temp Dewpoint Dewpoint Depression Visibility Wind Speed Wind Dir Waves Ship Positions

Drifting buoy 41609

Last reported at 2014-Nov-24 14:00 UTC. Time now 2014-Nov-24 16:28 UTC.
Position N 38°10' W 067°32'.

Water temperature 19.3 ° C

Date/timePositionNaut miles runAvg speedWind from/ knotsBaromVisibWave heightAir tempDewpointWater temp
2014-Nov-24 14:00N 38°10' W 067°32'0 0.0 19.3
2014-Nov-24 13:00N 38°10' W 067°32'0 0.2 19.3
2014-Nov-24 11:00N 38°10' W 067°32'3 3.3 19.1
2014-Nov-24 10:00N 38°07' W 067°34'1 1.3 19.3
2014-Nov-24 09:00N 38°06' W 067°34'4 4.3 19.5
2014-Nov-24 08:00N 38°02' W 067°37'5 4.6 19.5
2014-Nov-24 07:00N 37°58' W 067°40'0 0.0 19.6
2014-Nov-24 06:00N 37°58' W 067°40'11 2.6 19.7
2014-Nov-24 02:00N 37°49' W 067°45'1212.0 19.8
2014-Nov-24 01:00N 37°37' W 067°50'0 0.0 20.1
2014-Nov-24 00:00N 37°37' W 067°50'0 0.0 20.2
2014-Nov-23 23:00N 37°37' W 067°50'5 5.0 20.3
2014-Nov-23 22:00N 37°32' W 067°52'2 1.5 19.9
2014-Nov-23 21:00N 37°31' W 067°53'5 4.6 19.7
2014-Nov-23 20:00N 37°27' W 067°55'0 0.5 19.0
2014-Nov-23 19:00N 37°27' W 067°55'7 6.9 19.2
2014-Nov-23 18:00N 37°21' W 067°59'0 0.0 19.3
2014-Nov-23 17:00N 37°21' W 067°59'10 5.1 20.0
2014-Nov-23 15:00N 37°13' W 068°06'1313.2 19.8
2014-Nov-23 14:00N 37°03' W 068°17'0 0.0 20.5
2014-Nov-23 13:00N 37°03' W 068°17'0 0.0 19.2
2014-Nov-23 12:00N 37°03' W 068°17'0 0.0 20.0
2014-Nov-23 11:00N 37°03' W 068°17'5 4.5 19.4
2014-Nov-23 10:00N 37°01' W 068°22'5 4.9 20.2
2014-Nov-23 09:00N 36°59' W 068°28'0 0.0 19.2
2014-Nov-23 08:00N 36°59' W 068°28'5 4.7 19.3
2014-Nov-23 07:00N 36°58' W 068°34'1212.1 19.3
2014-Nov-23 06:00N 36°56' W 068°49'0 0.0 19.3
2014-Nov-23 05:00N 36°56' W 068°49'1 0.1 19.3
2014-Nov-23 01:00N 36°56' W 068°49'1 1.0 19.3
2014-Nov-23 00:00N 36°56' W 068°50'1 0.9 19.3
2014-Nov-22 23:00N 36°56' W 068°49'6 6.4 19.4
2014-Nov-22 22:00N 36°56' W 068°57'3 3.4 19.4
2014-Nov-22 21:00N 36°56' W 069°01'0 0.0 19.5
2014-Nov-22 20:00N 36°56' W 069°01'4 3.8 19.6
2014-Nov-22 19:00N 36°56' W 069°06'0 0.1 19.7
2014-Nov-22 17:00N 36°56' W 069°06'1010.1 19.6
2014-Nov-22 16:00N 36°57' W 069°19'0 0.0 19.7
2014-Nov-22 15:00N 36°57' W 069°19'1110.6 19.3
2014-Nov-22 14:00N 37°02' W 069°30'0 0.0 19.4
2014-Nov-22 13:00N 37°02' W 069°30'2 1.0 19.4
2014-Nov-22 11:00N 37°03' W 069°32'3 3.4 19.3
2014-Nov-22 10:00N 37°05' W 069°35'2 1.9 19.1
2014-Nov-22 09:00N 37°07' W 069°37'5 4.5 19.1
2014-Nov-22 08:00N 37°10' W 069°41'5 4.6 18.9
2014-Nov-22 07:00N 37°13' W 069°45'0 0.0 18.8
2014-Nov-22 06:00N 37°13' W 069°45'0 0.0 18.7
2014-Nov-22 05:00N 37°13' W 069°45'10 3.2 19.1
2014-Nov-22 02:00N 37°21' W 069°52'9 4.7 18.7
2014-Nov-22 00:00N 37°29' W 069°59'0 0.0 18.5
2014-Nov-21 23:00N 37°29' W 069°59'0 0.0 18.4
2014-Nov-21 22:00N 37°29' W 069°59'5 4.9 18.5
2014-Nov-21 21:00N 37°32' W 070°03'0 0.0 18.5
2014-Nov-21 19:00N 37°32' W 070°03'4 4.3 18.5
2014-Nov-21 18:00N 37°36' W 070°06'4 4.1 18.6
2014-Nov-21 17:00N 37°40' W 070°08'13 4.2 18.6
2014-Nov-21 14:00N 37°48' W 070°20'0 0.0 18.6
2014-Nov-21 11:00N 37°48' W 070°20'1111.2 18.3
2014-Nov-21 10:00N 37°56' W 070°31'8 8.2 18.3
2014-Nov-21 09:00N 37°50' W 070°23'8 8.2 18.5
2014-Nov-21 08:00N 37°56' W 070°31'0 0.0 18.6
2014-Nov-21 07:00N 37°56' W 070°31'0 0.0 18.6
2014-Nov-21 05:00N 37°56' W 070°31'15 4.9 18.9
2014-Nov-21 02:00N 38°06' W 070°44'2 0.8 18.3
2014-Nov-21 00:00N 38°07' W 070°46'3 3.3 18.2
2014-Nov-20 23:00N 38°08' W 070°49'2 1.6 18.3
2014-Nov-20 22:00N 38°09' W 070°51'2 1.1 19.0
2014-Nov-20 20:00N 38°10' W 070°53'2 2.0 17.9
2014-Nov-20 19:00N 38°11' W 070°56'0 0.0 17.9
2014-Nov-20 18:00N 38°11' W 070°56'0 0.1 17.8
2014-Nov-20 17:00N 38°11' W 070°56'9 8.9 17.8
2014-Nov-20 16:00N 38°15' W 071°06'0 0.0 17.8
2014-Nov-20 14:00N 38°15' W 071°06'3 0.8 17.8
2014-Nov-20 10:00N 38°16' W 071°10'0 0.0 18.0
2014-Nov-20 09:00N 38°16' W 071°10'0 0.0 18.6
2014-Nov-20 08:00N 38°16' W 071°10'7 0.9 17.7
2014-Nov-20 01:00N 38°18' W 071°18'0 0.0 17.8
2014-Nov-20 00:00N 38°18' W 071°18'2 2.0 17.8
2014-Nov-19 23:00N 38°19' W 071°20'1 0.9 17.8
2014-Nov-19 22:00N 38°19' W 071°21'2 2.0 17.8
2014-Nov-19 21:00N 38°19' W 071°24'1 1.4 17.8
2014-Nov-19 20:00N 38°19' W 071°26'0 0.0 18.1
2014-Nov-19 19:00N 38°19' W 071°26'0 0.0 18.1
2014-Nov-19 18:00N 38°19' W 071°26'5 0.7 18.1
2014-Nov-19 11:00N 38°17' W 071°31'1 0.9 18.0
2014-Nov-19 10:00N 38°18' W 071°32'2 1.5 17.9
2014-Nov-19 09:00N 38°19' W 071°33'0 0.0 18.0
2014-Nov-19 06:00N 38°19' W 071°33'3 0.8 17.9
2014-Nov-19 02:00N 38°21' W 071°37'2 2.4 17.9
2014-Nov-19 01:00N 38°22' W 071°40'1 0.2 18.0
2014-Nov-18 20:00N 38°21' W 071°41'0 0.5 18.2
2014-Nov-18 19:00N 38°21' W 071°40'2 0.4 18.3
2014-Nov-18 14:00N 38°20' W 071°38'2 0.6 18.5
2014-Nov-18 11:00N 38°22' W 071°38'2 1.5 18.5
2014-Nov-18 10:00N 38°23' W 071°39'0 0.5 18.6
2014-Nov-18 09:00N 38°23' W 071°40'0 0.5 18.6
2014-Nov-18 08:00N 38°23' W 071°39'3 3.0 18.6
2014-Nov-18 07:00N 38°21' W 071°42'0 0.0 18.6
2014-Nov-18 06:00N 38°21' W 071°42'0 0.0 18.6
2014-Nov-18 03:00N 38°21' W 071°42'1 0.4 18.6
2014-Nov-18 01:00N 38°20' W 071°43'1 1.3 18.7
2014-Nov-18 00:00N 38°22' W 071°43'1 0.4 18.6
2014-Nov-17 22:00N 38°22' W 071°44'0 0.0 18.7
2014-Nov-17 20:00N 38°22' W 071°44'1 0.4 18.7
2014-Nov-17 18:00N 38°23' W 071°44'2 2.0 18.7
2014-Nov-17 17:00N 38°22' W 071°47'2 0.8 18.6
2014-Nov-17 14:00N 38°22' W 071°50'1 0.3 18.5
2014-Nov-17 10:00N 38°21' W 071°50'0 0.0 18.6
2014-Nov-17 09:00N 38°21' W 071°50'2 2.4 18.7
2014-Nov-17 08:00N 38°20' W 071°47'1 1.1 18.8
2014-Nov-17 07:00N 38°21' W 071°48'0 0.0 18.7
2014-Nov-17 06:00N 38°21' W 071°48'3 0.7 18.7
2014-Nov-17 02:00N 38°22' W 071°51'0 0.0 17.3
2014-Nov-17 01:00N 38°22' W 071°51'0 0.0 17.3
2014-Nov-17 00:00N 38°22' W 071°51'3 1.4 17.3
2014-Nov-16 22:00N 38°22' W 071°55'0 0.2 17.3
2014-Nov-16 21:00N 38°22' W 071°54'1 0.4 17.4
2014-Nov-16 18:00N 38°23' W 071°53'0 0.0 17.5
2014-Nov-16 17:00N 38°23' W 071°53'1 0.9 18.0
2014-Nov-16 16:00N 38°23' W 071°52'2 1.8 18.0
2014-Nov-16 15:00N 38°25' W 071°52'0 0.0 17.6
2014-Nov-16 13:00N 38°25' W 071°52'0 0.0 17.2
2014-Nov-16 12:00N 38°25' W 071°52'0 0.0 17.2
2014-Nov-16 11:00N 38°25' W 071°52'1 1.4 17.2
2014-Nov-16 10:00N 38°25' W 071°53'1 0.8 17.2
2014-Nov-16 09:00N 38°25' W 071°54'0 0.0 17.2
2014-Nov-16 08:00N 38°25' W 071°54'1 0.8 17.2
2014-Nov-16 07:00N 38°26' W 071°55'0 0.0 17.2
2014-Nov-16 02:00N 38°26' W 071°55'0 0.5 17.2
2014-Nov-16 01:00N 38°26' W 071°54'1 0.6 17.3
2014-Nov-16 00:00N 38°26' W 071°54'0 0.2 17.3
2014-Nov-15 23:00N 38°27' W 071°54'4 3.6 17.3
2014-Nov-15 22:00N 38°29' W 071°51'0 0.0 17.2
2014-Nov-15 21:00N 38°29' W 071°51'0 0.0 17.3
2014-Nov-15 20:00N 38°29' W 071°51'1 0.8 17.3
2014-Nov-15 19:00N 38°30' W 071°50'0 0.2 17.3
2014-Nov-15 18:00N 38°30' W 071°51'0 0.2 17.3
2014-Nov-15 17:00N 38°30' W 071°50'3 1.3 17.3
2014-Nov-15 15:00N 38°32' W 071°49'0 0.0 17.4
2014-Nov-15 14:00N 38°32' W 071°49'1 0.2 17.4
2014-Nov-15 11:00N 38°32' W 071°49'0 0.0 17.5
2014-Nov-15 10:00N 38°32' W 071°49'1 1.1 17.5
2014-Nov-15 09:00N 38°32' W 071°48'0 0.1 17.6
2014-Nov-15 08:00N 38°32' W 071°48'0 0.1 17.7
2014-Nov-15 07:00N 38°32' W 071°48'1 1.1 17.8
2014-Nov-15 06:00N 38°32' W 071°47'3 3.0 17.9
2014-Nov-15 05:00N 38°34' W 071°44'1 0.4 18.0
2014-Nov-15 02:00N 38°34' W 071°43'2 1.9 17.8
2014-Nov-15 01:00N 38°36' W 071°42'0 0.0 17.8
2014-Nov-14 23:00N 38°36' W 071°42'2 1.9 17.8
2014-Nov-14 22:00N 38°38' W 071°43'0 0.0 17.8
2014-Nov-14 21:00N 38°38' W 071°43'0 0.5 17.9
2014-Nov-14 20:00N 38°38' W 071°43'1 0.8 17.9
2014-Nov-14 19:00N 38°38' W 071°43'1 0.8 17.8
2014-Nov-14 18:00N 38°38' W 071°43'0 0.0 17.8
2014-Nov-14 17:00N 38°38' W 071°43'6 1.9 17.8
2014-Nov-14 14:00N 38°39' W 071°36'   17.8

Dump ship's entire track history